sensor_id;sensor_type;location;lat;lon;timestamp;P1;durP1;ratioP1;P2;durP2;ratioP2
10116;SDS011;5098;48.792;9.012;2022-11-15T00:01:40;3.00;;;2.70;;
10116;SDS011;5098;48.792;9.012;2022-11-15T00:04:06;3.53;;;2.80;;
10116;SDS011;5098;48.792;9.012;2022-11-15T00:06:33;2.33;;;2.00;;
10116;SDS011;5098;48.792;9.012;2022-11-15T00:08:59;3.90;;;2.37;;
10116;SDS011;5098;48.792;9.012;2022-11-15T00:11:25;2.83;;;2.00;;
10116;SDS011;5098;48.792;9.012;2022-11-15T00:13:54;2.00;;;1.70;;
10116;SDS011;5098;48.792;9.012;2022-11-15T00:16:20;2.37;;;2.17;;
10116;SDS011;5098;48.792;9.012;2022-11-15T00:18:46;2.37;;;2.17;;
10116;SDS011;5098;48.792;9.012;2022-11-15T00:21:13;3.20;;;2.60;;
10116;SDS011;5098;48.792;9.012;2022-11-15T00:23:39;2.30;;;1.67;;
10116;SDS011;5098;48.792;9.012;2022-11-15T00:26:05;3.70;;;2.20;;
10116;SDS011;5098;48.792;9.012;2022-11-15T00:28:31;3.80;;;2.20;;
10116;SDS011;5098;48.792;9.012;2022-11-15T00:31:01;3.20;;;2.17;;
10116;SDS011;5098;48.792;9.012;2022-11-15T00:33:28;3.23;;;2.30;;
10116;SDS011;5098;48.792;9.012;2022-11-15T00:35:58;3.50;;;2.10;;
10116;SDS011;5098;48.792;9.012;2022-11-15T00:38:24;4.53;;;1.90;;
10116;SDS011;5098;48.792;9.012;2022-11-15T00:40:50;2.63;;;2.20;;
10116;SDS011;5098;48.792;9.012;2022-11-15T00:43:16;2.23;;;2.07;;
10116;SDS011;5098;48.792;9.012;2022-11-15T00:45:42;4.33;;;2.63;;
10116;SDS011;5098;48.792;9.012;2022-11-15T00:48:09;2.23;;;1.80;;
10116;SDS011;5098;48.792;9.012;2022-11-15T00:50:35;9.83;;;2.50;;
10116;SDS011;5098;48.792;9.012;2022-11-15T00:53:01;1.83;;;1.73;;
10116;SDS011;5098;48.792;9.012;2022-11-15T00:55:27;2.20;;;2.00;;
10116;SDS011;5098;48.792;9.012;2022-11-15T00:57:53;3.20;;;1.97;;
10116;SDS011;5098;48.792;9.012;2022-11-15T01:00:19;2.30;;;1.97;;
10116;SDS011;5098;48.792;9.012;2022-11-15T01:02:45;3.57;;;2.07;;
10116;SDS011;5098;48.792;9.012;2022-11-15T01:05:11;4.93;;;2.00;;
10116;SDS011;5098;48.792;9.012;2022-11-15T01:07:37;3.50;;;2.10;;
10116;SDS011;5098;48.792;9.012;2022-11-15T01:10:04;3.50;;;2.27;;
10116;SDS011;5098;48.792;9.012;2022-11-15T01:12:30;2.63;;;2.43;;
10116;SDS011;5098;48.792;9.012;2022-11-15T01:14:57;3.20;;;2.90;;
10116;SDS011;5098;48.792;9.012;2022-11-15T01:17:23;3.50;;;2.30;;
10116;SDS011;5098;48.792;9.012;2022-11-15T01:19:49;4.83;;;2.37;;
10116;SDS011;5098;48.792;9.012;2022-11-15T01:22:15;2.40;;;2.10;;
10116;SDS011;5098;48.792;9.012;2022-11-15T01:24:41;2.93;;;2.10;;
10116;SDS011;5098;48.792;9.012;2022-11-15T01:27:07;4.30;;;2.70;;
10116;SDS011;5098;48.792;9.012;2022-11-15T01:29:33;2.37;;;2.03;;
10116;SDS011;5098;48.792;9.012;2022-11-15T01:31:59;2.70;;;2.47;;
10116;SDS011;5098;48.792;9.012;2022-11-15T01:34:25;3.40;;;1.93;;
10116;SDS011;5098;48.792;9.012;2022-11-15T01:36:51;3.17;;;2.00;;
10116;SDS011;5098;48.792;9.012;2022-11-15T01:39:17;2.37;;;2.00;;
10116;SDS011;5098;48.792;9.012;2022-11-15T01:41:44;4.37;;;2.53;;
10116;SDS011;5098;48.792;9.012;2022-11-15T01:46:54;2.60;;;2.20;;
10116;SDS011;5098;48.792;9.012;2022-11-15T01:49:21;4.20;;;2.00;;
10116;SDS011;5098;48.792;9.012;2022-11-15T01:51:48;2.70;;;2.30;;
10116;SDS011;5098;48.792;9.012;2022-11-15T01:54:15;2.53;;;1.87;;
10116;SDS011;5098;48.792;9.012;2022-11-15T01:56:59;4.33;;;2.40;;
10116;SDS011;5098;48.792;9.012;2022-11-15T01:59:26;3.97;;;2.43;;
10116;SDS011;5098;48.792;9.012;2022-11-15T02:01:53;2.40;;;1.83;;
10116;SDS011;5098;48.792;9.012;2022-11-15T02:04:20;2.43;;;2.20;;
10116;SDS011;5098;48.792;9.012;2022-11-15T02:06:48;2.77;;;2.40;;
10116;SDS011;5098;48.792;9.012;2022-11-15T02:09:15;3.27;;;2.43;;
10116;SDS011;5098;48.792;9.012;2022-11-15T02:11:42;5.50;;;2.63;;
10116;SDS011;5098;48.792;9.012;2022-11-15T02:14:09;3.87;;;2.67;;
10116;SDS011;5098;48.792;9.012;2022-11-15T02:19:25;2.20;;;2.00;;
10116;SDS011;5098;48.792;9.012;2022-11-15T02:24:49;4.03;;;2.23;;
10116;SDS011;5098;48.792;9.012;2022-11-15T02:32:30;3.63;;;2.90;;
10116;SDS011;5098;48.792;9.012;2022-11-15T02:35:06;4.53;;;2.90;;
10116;SDS011;5098;48.792;9.012;2022-11-15T02:37:39;2.87;;;2.50;;
10116;SDS011;5098;48.792;9.012;2022-11-15T02:42:40;7.20;;;3.30;;
10116;SDS011;5098;48.792;9.012;2022-11-15T02:45:28;3.10;;;2.73;;
10116;SDS011;5098;48.792;9.012;2022-11-15T02:47:56;3.40;;;3.00;;
10116;SDS011;5098;48.792;9.012;2022-11-15T02:50:24;3.40;;;2.67;;
10116;SDS011;5098;48.792;9.012;2022-11-15T02:52:50;2.90;;;2.50;;
10116;SDS011;5098;48.792;9.012;2022-11-15T02:55:27;3.10;;;2.17;;
10116;SDS011;5098;48.792;9.012;2022-11-15T02:58:01;2.40;;;2.20;;
10116;SDS011;5098;48.792;9.012;2022-11-15T03:00:39;4.23;;;3.40;;
10116;SDS011;5098;48.792;9.012;2022-11-15T03:08:09;3.97;;;2.63;;
10116;SDS011;5098;48.792;9.012;2022-11-15T03:13:26;4.60;;;3.00;;
10116;SDS011;5098;48.792;9.012;2022-11-15T03:15:56;4.90;;;2.50;;
10116;SDS011;5098;48.792;9.012;2022-11-15T03:18:27;12.20;;;2.70;;
10116;SDS011;5098;48.792;9.012;2022-11-15T03:20:55;2.80;;;2.43;;
10116;SDS011;5098;48.792;9.012;2022-11-15T03:23:23;3.40;;;2.90;;
10116;SDS011;5098;48.792;9.012;2022-11-15T03:25:50;2.50;;;2.30;;
10116;SDS011;5098;48.792;9.012;2022-11-15T03:28:23;3.83;;;2.80;;
10116;SDS011;5098;48.792;9.012;2022-11-15T03:30:50;2.63;;;2.17;;
10116;SDS011;5098;48.792;9.012;2022-11-15T03:33:18;3.50;;;2.60;;
10116;SDS011;5098;48.792;9.012;2022-11-15T03:35:45;3.17;;;2.87;;
10116;SDS011;5098;48.792;9.012;2022-11-15T03:38:15;2.90;;;2.43;;
10116;SDS011;5098;48.792;9.012;2022-11-15T03:40:44;2.97;;;2.20;;
10116;SDS011;5098;48.792;9.012;2022-11-15T03:45:42;5.80;;;2.90;;
10116;SDS011;5098;48.792;9.012;2022-11-15T03:50:38;3.30;;;3.00;;
10116;SDS011;5098;48.792;9.012;2022-11-15T03:53:04;3.10;;;2.80;;
10116;SDS011;5098;48.792;9.012;2022-11-15T03:55:31;4.60;;;2.57;;
10116;SDS011;5098;48.792;9.012;2022-11-15T03:57:58;6.00;;;2.80;;
10116;SDS011;5098;48.792;9.012;2022-11-15T04:00:25;5.50;;;3.13;;
10116;SDS011;5098;48.792;9.012;2022-11-15T04:02:51;2.73;;;2.40;;
10116;SDS011;5098;48.792;9.012;2022-11-15T04:05:17;7.00;;;2.50;;
10116;SDS011;5098;48.792;9.012;2022-11-15T04:07:43;4.37;;;2.30;;
10116;SDS011;5098;48.792;9.012;2022-11-15T04:10:10;4.43;;;2.80;;
10116;SDS011;5098;48.792;9.012;2022-11-15T04:12:38;2.87;;;2.13;;
10116;SDS011;5098;48.792;9.012;2022-11-15T04:15:12;2.70;;;2.20;;
10116;SDS011;5098;48.792;9.012;2022-11-15T04:17:45;4.27;;;2.40;;
10116;SDS011;5098;48.792;9.012;2022-11-15T04:23:03;3.60;;;2.60;;
10116;SDS011;5098;48.792;9.012;2022-11-15T04:25:49;5.68;;;2.15;;
10116;SDS011;5098;48.792;9.012;2022-11-15T04:28:16;4.55;;;3.10;;
10116;SDS011;5098;48.792;9.012;2022-11-15T04:30:42;5.43;;;2.53;;
10116;SDS011;5098;48.792;9.012;2022-11-15T04:33:08;3.60;;;1.98;;
10116;SDS011;5098;48.792;9.012;2022-11-15T04:35:35;3.43;;;2.40;;
10116;SDS011;5098;48.792;9.012;2022-11-15T04:38:01;3.50;;;2.20;;
10116;SDS011;5098;48.792;9.012;2022-11-15T04:40:28;2.33;;;2.13;;
10116;SDS011;5098;48.792;9.012;2022-11-15T04:42:54;3.70;;;2.50;;
10116;SDS011;5098;48.792;9.012;2022-11-15T04:45:20;2.40;;;2.20;;
10116;SDS011;5098;48.792;9.012;2022-11-15T04:47:46;2.83;;;2.20;;
10116;SDS011;5098;48.792;9.012;2022-11-15T04:50:14;2.90;;;2.60;;
10116;SDS011;5098;48.792;9.012;2022-11-15T04:52:44;4.27;;;3.00;;
10116;SDS011;5098;48.792;9.012;2022-11-15T04:55:15;2.50;;;1.97;;
10116;SDS011;5098;48.792;9.012;2022-11-15T04:57:41;2.80;;;2.10;;
10116;SDS011;5098;48.792;9.012;2022-11-15T05:00:08;2.85;;;2.08;;
10116;SDS011;5098;48.792;9.012;2022-11-15T05:02:34;7.50;;;2.40;;
10116;SDS011;5098;48.792;9.012;2022-11-15T05:05:30;3.13;;;2.80;;
10116;SDS011;5098;48.792;9.012;2022-11-15T05:07:56;4.55;;;2.60;;
10116;SDS011;5098;48.792;9.012;2022-11-15T05:10:22;4.07;;;2.75;;
10116;SDS011;5098;48.792;9.012;2022-11-15T05:12:48;2.40;;;2.20;;
10116;SDS011;5098;48.792;9.012;2022-11-15T05:15:14;3.95;;;2.88;;
10116;SDS011;5098;48.792;9.012;2022-11-15T05:17:40;2.35;;;2.15;;
10116;SDS011;5098;48.792;9.012;2022-11-15T05:20:06;3.92;;;2.42;;
10116;SDS011;5098;48.792;9.012;2022-11-15T05:22:32;2.70;;;2.50;;
10116;SDS011;5098;48.792;9.012;2022-11-15T05:24:59;3.30;;;2.47;;
10116;SDS011;5098;48.792;9.012;2022-11-15T05:27:25;3.35;;;2.92;;
10116;SDS011;5098;48.792;9.012;2022-11-15T05:29:51;3.08;;;2.80;;
10116;SDS011;5098;48.792;9.012;2022-11-15T05:32:17;3.67;;;2.70;;
10116;SDS011;5098;48.792;9.012;2022-11-15T05:34:43;3.03;;;2.72;;
10116;SDS011;5098;48.792;9.012;2022-11-15T05:37:09;3.97;;;2.88;;
10116;SDS011;5098;48.792;9.012;2022-11-15T05:39:36;3.30;;;3.00;;
10116;SDS011;5098;48.792;9.012;2022-11-15T05:42:06;4.47;;;2.63;;
10116;SDS011;5098;48.792;9.012;2022-11-15T05:44:33;4.65;;;3.17;;
10116;SDS011;5098;48.792;9.012;2022-11-15T05:46:59;4.75;;;2.60;;
10116;SDS011;5098;48.792;9.012;2022-11-15T05:49:26;6.53;;;3.33;;
10116;SDS011;5098;48.792;9.012;2022-11-15T05:51:55;3.05;;;2.75;;
10116;SDS011;5098;48.792;9.012;2022-11-15T05:54:22;4.63;;;2.60;;
10116;SDS011;5098;48.792;9.012;2022-11-15T05:56:49;3.63;;;2.90;;
10116;SDS011;5098;48.792;9.012;2022-11-15T05:59:15;3.70;;;2.80;;
10116;SDS011;5098;48.792;9.012;2022-11-15T06:01:41;4.57;;;2.67;;
10116;SDS011;5098;48.792;9.012;2022-11-15T06:04:07;5.70;;;2.53;;
10116;SDS011;5098;48.792;9.012;2022-11-15T06:06:34;2.60;;;2.20;;
10116;SDS011;5098;48.792;9.012;2022-11-15T06:09:00;2.78;;;2.45;;
10116;SDS011;5098;48.792;9.012;2022-11-15T06:11:26;3.77;;;2.43;;
10116;SDS011;5098;48.792;9.012;2022-11-15T06:13:52;5.00;;;2.40;;
10116;SDS011;5098;48.792;9.012;2022-11-15T06:16:18;2.87;;;2.10;;
10116;SDS011;5098;48.792;9.012;2022-11-15T06:18:44;3.50;;;2.65;;
10116;SDS011;5098;48.792;9.012;2022-11-15T06:21:10;2.50;;;2.30;;
10116;SDS011;5098;48.792;9.012;2022-11-15T06:23:36;5.78;;;2.90;;
10116;SDS011;5098;48.792;9.012;2022-11-15T06:26:02;4.23;;;2.40;;
10116;SDS011;5098;48.792;9.012;2022-11-15T06:28:29;2.80;;;2.40;;
10116;SDS011;5098;48.792;9.012;2022-11-15T06:30:55;2.30;;;2.10;;
10116;SDS011;5098;48.792;9.012;2022-11-15T06:33:22;6.30;;;2.70;;
10116;SDS011;5098;48.792;9.012;2022-11-15T06:35:48;3.83;;;1.90;;
10116;SDS011;5098;48.792;9.012;2022-11-15T06:38:14;3.30;;;2.80;;
10116;SDS011;5098;48.792;9.012;2022-11-15T06:40:40;2.55;;;2.35;;
10116;SDS011;5098;48.792;9.012;2022-11-15T06:43:06;3.20;;;2.90;;
10116;SDS011;5098;48.792;9.012;2022-11-15T06:45:32;4.67;;;2.50;;
10116;SDS011;5098;48.792;9.012;2022-11-15T06:47:59;5.53;;;3.00;;
10116;SDS011;5098;48.792;9.012;2022-11-15T06:50:25;3.53;;;2.30;;
10116;SDS011;5098;48.792;9.012;2022-11-15T06:52:51;3.77;;;2.37;;
10116;SDS011;5098;48.792;9.012;2022-11-15T06:55:17;2.23;;;2.00;;
10116;SDS011;5098;48.792;9.012;2022-11-15T06:57:47;2.80;;;2.57;;
10116;SDS011;5098;48.792;9.012;2022-11-15T07:00:13;2.80;;;2.30;;
10116;SDS011;5098;48.792;9.012;2022-11-15T07:02:40;3.70;;;2.73;;
10116;SDS011;5098;48.792;9.012;2022-11-15T07:05:06;3.67;;;2.27;;
10116;SDS011;5098;48.792;9.012;2022-11-15T07:07:32;3.30;;;2.47;;
10116;SDS011;5098;48.792;9.012;2022-11-15T07:09:58;2.90;;;2.60;;
10116;SDS011;5098;48.792;9.012;2022-11-15T07:12:24;2.83;;;2.60;;
10116;SDS011;5098;48.792;9.012;2022-11-15T07:14:50;4.00;;;2.00;;
10116;SDS011;5098;48.792;9.012;2022-11-15T07:17:16;4.87;;;1.97;;
10116;SDS011;5098;48.792;9.012;2022-11-15T07:19:42;2.93;;;2.43;;
10116;SDS011;5098;48.792;9.012;2022-11-15T07:22:08;5.20;;;2.60;;
10116;SDS011;5098;48.792;9.012;2022-11-15T07:24:34;3.23;;;2.50;;
10116;SDS011;5098;48.792;9.012;2022-11-15T07:27:00;2.47;;;1.87;;
10116;SDS011;5098;48.792;9.012;2022-11-15T07:29:26;3.57;;;2.33;;
10116;SDS011;5098;48.792;9.012;2022-11-15T07:31:52;3.47;;;2.80;;
10116;SDS011;5098;48.792;9.012;2022-11-15T07:34:18;3.03;;;2.33;;
10116;SDS011;5098;48.792;9.012;2022-11-15T07:36:44;3.17;;;2.87;;
10116;SDS011;5098;48.792;9.012;2022-11-15T07:39:10;7.83;;;4.40;;
10116;SDS011;5098;48.792;9.012;2022-11-15T07:41:37;2.70;;;2.50;;
10116;SDS011;5098;48.792;9.012;2022-11-15T07:44:04;3.13;;;2.10;;
10116;SDS011;5098;48.792;9.012;2022-11-15T07:46:30;3.47;;;2.70;;
10116;SDS011;5098;48.792;9.012;2022-11-15T07:48:56;2.63;;;2.40;;
10116;SDS011;5098;48.792;9.012;2022-11-15T07:51:23;2.73;;;2.10;;
10116;SDS011;5098;48.792;9.012;2022-11-15T07:53:49;2.90;;;2.50;;
10116;SDS011;5098;48.792;9.012;2022-11-15T07:56:15;3.67;;;2.43;;
10116;SDS011;5098;48.792;9.012;2022-11-15T07:58:41;3.53;;;2.23;;
10116;SDS011;5098;48.792;9.012;2022-11-15T08:01:08;3.47;;;2.10;;
10116;SDS011;5098;48.792;9.012;2022-11-15T08:03:34;2.67;;;2.13;;
10116;SDS011;5098;48.792;9.012;2022-11-15T08:06:01;2.23;;;1.80;;
10116;SDS011;5098;48.792;9.012;2022-11-15T08:08:27;2.70;;;2.10;;
10116;SDS011;5098;48.792;9.012;2022-11-15T08:10:53;4.03;;;3.00;;
10116;SDS011;5098;48.792;9.012;2022-11-15T08:13:19;2.50;;;2.10;;
10116;SDS011;5098;48.792;9.012;2022-11-15T08:15:46;2.40;;;2.20;;
10116;SDS011;5098;48.792;9.012;2022-11-15T08:18:13;2.23;;;2.03;;
10116;SDS011;5098;48.792;9.012;2022-11-15T08:20:39;6.53;;;2.80;;
10116;SDS011;5098;48.792;9.012;2022-11-15T08:23:06;3.10;;;1.90;;
10116;SDS011;5098;48.792;9.012;2022-11-15T08:25:33;2.67;;;1.80;;
10116;SDS011;5098;48.792;9.012;2022-11-15T08:28:00;4.27;;;2.30;;
10116;SDS011;5098;48.792;9.012;2022-11-15T08:30:26;2.03;;;1.80;;
10116;SDS011;5098;48.792;9.012;2022-11-15T08:32:55;2.47;;;1.80;;
10116;SDS011;5098;48.792;9.012;2022-11-15T08:35:22;4.23;;;2.73;;
10116;SDS011;5098;48.792;9.012;2022-11-15T08:37:48;2.43;;;2.00;;
10116;SDS011;5098;48.792;9.012;2022-11-15T08:40:14;3.50;;;2.20;;
10116;SDS011;5098;48.792;9.012;2022-11-15T08:42:41;3.67;;;2.33;;
10116;SDS011;5098;48.792;9.012;2022-11-15T08:45:07;2.40;;;2.03;;
10116;SDS011;5098;48.792;9.012;2022-11-15T08:47:34;2.90;;;2.00;;
10116;SDS011;5098;48.792;9.012;2022-11-15T08:50:00;3.33;;;2.20;;
10116;SDS011;5098;48.792;9.012;2022-11-15T08:52:26;4.03;;;2.30;;
10116;SDS011;5098;48.792;9.012;2022-11-15T08:54:52;4.73;;;2.00;;
10116;SDS011;5098;48.792;9.012;2022-11-15T08:57:18;3.97;;;2.20;;
10116;SDS011;5098;48.792;9.012;2022-11-15T08:59:44;3.07;;;2.23;;
10116;SDS011;5098;48.792;9.012;2022-11-15T09:02:11;4.47;;;2.77;;
10116;SDS011;5098;48.792;9.012;2022-11-15T09:04:39;2.90;;;2.47;;
10116;SDS011;5098;48.792;9.012;2022-11-15T09:07:06;3.90;;;2.63;;
10116;SDS011;5098;48.792;9.012;2022-11-15T09:09:32;4.07;;;2.30;;
10116;SDS011;5098;48.792;9.012;2022-11-15T09:11:58;3.80;;;2.30;;
10116;SDS011;5098;48.792;9.012;2022-11-15T09:14:24;4.43;;;3.17;;
10116;SDS011;5098;48.792;9.012;2022-11-15T09:16:50;4.73;;;2.67;;
10116;SDS011;5098;48.792;9.012;2022-11-15T09:19:16;3.90;;;2.43;;
10116;SDS011;5098;48.792;9.012;2022-11-15T09:21:42;4.90;;;3.20;;
10116;SDS011;5098;48.792;9.012;2022-11-15T09:24:08;2.90;;;2.20;;
10116;SDS011;5098;48.792;9.012;2022-11-15T09:26:34;4.93;;;3.60;;
10116;SDS011;5098;48.792;9.012;2022-11-15T09:29:00;4.83;;;4.03;;
10116;SDS011;5098;48.792;9.012;2022-11-15T09:31:27;5.70;;;4.83;;
10116;SDS011;5098;48.792;9.012;2022-11-15T09:33:54;4.70;;;3.37;;
10116;SDS011;5098;48.792;9.012;2022-11-15T09:36:20;3.87;;;3.30;;
10116;SDS011;5098;48.792;9.012;2022-11-15T09:38:46;4.43;;;3.33;;
10116;SDS011;5098;48.792;9.012;2022-11-15T09:51:18;5.57;;;3.10;;
10116;SDS011;5098;48.792;9.012;2022-11-15T09:53:49;3.97;;;3.57;;
10116;SDS011;5098;48.792;9.012;2022-11-15T09:56:19;6.73;;;2.57;;
10116;SDS011;5098;48.792;9.012;2022-11-15T09:58:55;4.37;;;2.70;;
10116;SDS011;5098;48.792;9.012;2022-11-15T10:04:08;4.80;;;3.13;;
10116;SDS011;5098;48.792;9.012;2022-11-15T10:06:35;3.70;;;2.67;;
10116;SDS011;5098;48.792;9.012;2022-11-15T10:09:05;4.30;;;2.80;;
10116;SDS011;5098;48.792;9.012;2022-11-15T10:11:34;5.20;;;2.83;;
10116;SDS011;5098;48.792;9.012;2022-11-15T10:14:02;4.00;;;2.47;;
10116;SDS011;5098;48.792;9.012;2022-11-15T10:19:04;3.17;;;2.73;;
10116;SDS011;5098;48.792;9.012;2022-11-15T10:21:46;5.33;;;2.33;;
10116;SDS011;5098;48.792;9.012;2022-11-15T10:24:17;3.43;;;2.73;;
10116;SDS011;5098;48.792;9.012;2022-11-15T10:26:47;5.67;;;2.40;;
10116;SDS011;5098;48.792;9.012;2022-11-15T10:29:23;7.47;;;2.20;;
10116;SDS011;5098;48.792;9.012;2022-11-15T10:31:51;2.60;;;2.40;;
10116;SDS011;5098;48.792;9.012;2022-11-15T10:34:20;4.47;;;2.60;;
10116;SDS011;5098;48.792;9.012;2022-11-15T10:36:56;3.00;;;2.47;;
10116;SDS011;5098;48.792;9.012;2022-11-15T10:39:23;3.30;;;2.20;;
10116;SDS011;5098;48.792;9.012;2022-11-15T10:41:49;3.20;;;2.53;;
10116;SDS011;5098;48.792;9.012;2022-11-15T10:49:23;2.70;;;2.10;;
10116;SDS011;5098;48.792;9.012;2022-11-15T10:51:57;3.03;;;2.17;;
10116;SDS011;5098;48.792;9.012;2022-11-15T10:54:27;2.40;;;2.20;;
10116;SDS011;5098;48.792;9.012;2022-11-15T10:56:55;2.40;;;2.00;;
10116;SDS011;5098;48.792;9.012;2022-11-15T10:59:29;6.07;;;2.10;;
10116;SDS011;5098;48.792;9.012;2022-11-15T11:01:56;2.77;;;1.50;;
10116;SDS011;5098;48.792;9.012;2022-11-15T11:04:22;3.27;;;1.87;;
10116;SDS011;5098;48.792;9.012;2022-11-15T11:06:55;2.93;;;2.40;;
10116;SDS011;5098;48.792;9.012;2022-11-15T11:11:51;2.37;;;2.17;;
10116;SDS011;5098;48.792;9.012;2022-11-15T11:14:22;5.60;;;4.40;;
10116;SDS011;5098;48.792;9.012;2022-11-15T11:30:09;3.57;;;2.03;;
10116;SDS011;5098;48.792;9.012;2022-11-15T11:35:15;2.23;;;2.00;;
10116;SDS011;5098;48.792;9.012;2022-11-15T11:37:46;4.70;;;1.90;;
10116;SDS011;5098;48.792;9.012;2022-11-15T11:48:23;2.37;;;1.80;;
10116;SDS011;5098;48.792;9.012;2022-11-15T11:50:51;2.10;;;1.60;;
10116;SDS011;5098;48.792;9.012;2022-11-15T11:53:22;2.80;;;1.93;;
10116;SDS011;5098;48.792;9.012;2022-11-15T11:55:54;3.63;;;1.80;;
10116;SDS011;5098;48.792;9.012;2022-11-15T12:01:34;5.40;;;1.47;;
10116;SDS011;5098;48.792;9.012;2022-11-15T12:03:43;2.97;;;2.17;;
10116;SDS011;5098;48.792;9.012;2022-11-15T12:13:32;2.53;;;2.00;;
10116;SDS011;5098;48.792;9.012;2022-11-15T12:18:27;3.30;;;1.60;;
10116;SDS011;5098;48.792;9.012;2022-11-15T12:23:25;2.03;;;1.63;;
10116;SDS011;5098;48.792;9.012;2022-11-15T12:33:31;2.70;;;1.70;;
10116;SDS011;5098;48.792;9.012;2022-11-15T12:36:05;4.70;;;2.03;;
10116;SDS011;5098;48.792;9.012;2022-11-15T12:41:37;3.90;;;1.70;;
10116;SDS011;5098;48.792;9.012;2022-11-15T12:44:05;1.93;;;1.50;;
10116;SDS011;5098;48.792;9.012;2022-11-15T12:49:41;7.03;;;1.93;;
10116;SDS011;5098;48.792;9.012;2022-11-15T13:02:18;2.83;;;1.57;;
10116;SDS011;5098;48.792;9.012;2022-11-15T13:04:44;1.53;;;1.30;;
10116;SDS011;5098;48.792;9.012;2022-11-15T13:07:54;2.80;;;1.47;;
10116;SDS011;5098;48.792;9.012;2022-11-15T13:09:56;3.60;;;1.83;;
10116;SDS011;5098;48.792;9.012;2022-11-15T13:19:56;1.73;;;1.47;;
10116;SDS011;5098;48.792;9.012;2022-11-15T13:22:24;3.53;;;1.57;;
10116;SDS011;5098;48.792;9.012;2022-11-15T13:30:36;2.33;;;1.40;;
10116;SDS011;5098;48.792;9.012;2022-11-15T13:33:07;2.03;;;1.47;;
10116;SDS011;5098;48.792;9.012;2022-11-15T13:35:34;1.97;;;1.63;;
10116;SDS011;5098;48.792;9.012;2022-11-15T13:38:03;4.23;;;1.60;;
10116;SDS011;5098;48.792;9.012;2022-11-15T13:40:36;2.37;;;1.40;;
10116;SDS011;5098;48.792;9.012;2022-11-15T13:46:05;4.67;;;1.70;;
10116;SDS011;5098;48.792;9.012;2022-11-15T13:48:32;2.03;;;1.70;;
10116;SDS011;5098;48.792;9.012;2022-11-15T13:50:59;5.30;;;2.30;;
10116;SDS011;5098;48.792;9.012;2022-11-15T13:53:25;3.13;;;2.13;;
10116;SDS011;5098;48.792;9.012;2022-11-15T13:55:51;3.40;;;1.70;;
10116;SDS011;5098;48.792;9.012;2022-11-15T13:58:19;2.87;;;1.90;;
10116;SDS011;5098;48.792;9.012;2022-11-15T14:00:45;2.47;;;1.73;;
10116;SDS011;5098;48.792;9.012;2022-11-15T14:03:19;1.93;;;1.57;;
10116;SDS011;5098;48.792;9.012;2022-11-15T14:06:05;3.03;;;2.00;;
10116;SDS011;5098;48.792;9.012;2022-11-15T14:08:32;1.93;;;1.60;;
10116;SDS011;5098;48.792;9.012;2022-11-15T14:11:05;3.20;;;1.70;;
10116;SDS011;5098;48.792;9.012;2022-11-15T14:13:31;1.87;;;1.60;;
10116;SDS011;5098;48.792;9.012;2022-11-15T14:16:14;2.50;;;1.43;;
10116;SDS011;5098;48.792;9.012;2022-11-15T14:18:47;1.90;;;1.70;;
10116;SDS011;5098;48.792;9.012;2022-11-15T14:21:14;3.00;;;2.30;;
10116;SDS011;5098;48.792;9.012;2022-11-15T14:23:40;2.30;;;1.63;;
10116;SDS011;5098;48.792;9.012;2022-11-15T14:26:10;2.37;;;1.50;;
10116;SDS011;5098;48.792;9.012;2022-11-15T14:28:37;1.50;;;1.40;;
10116;SDS011;5098;48.792;9.012;2022-11-15T14:31:06;6.23;;;2.10;;
10116;SDS011;5098;48.792;9.012;2022-11-15T14:33:36;2.73;;;1.97;;
10116;SDS011;5098;48.792;9.012;2022-11-15T14:38:36;4.07;;;1.87;;
10116;SDS011;5098;48.792;9.012;2022-11-15T14:41:02;4.60;;;2.50;;
10116;SDS011;5098;48.792;9.012;2022-11-15T14:43:28;2.20;;;2.00;;
10116;SDS011;5098;48.792;9.012;2022-11-15T14:45:54;4.83;;;2.30;;
10116;SDS011;5098;48.792;9.012;2022-11-15T14:48:20;4.77;;;2.10;;
10116;SDS011;5098;48.792;9.012;2022-11-15T14:50:47;3.70;;;1.80;;
10116;SDS011;5098;48.792;9.012;2022-11-15T14:53:16;3.03;;;2.03;;
10116;SDS011;5098;48.792;9.012;2022-11-15T14:55:43;5.17;;;2.00;;
10116;SDS011;5098;48.792;9.012;2022-11-15T14:58:10;2.00;;;1.60;;
10116;SDS011;5098;48.792;9.012;2022-11-15T15:00:36;4.63;;;2.00;;
10116;SDS011;5098;48.792;9.012;2022-11-15T15:03:03;2.83;;;1.93;;
10116;SDS011;5098;48.792;9.012;2022-11-15T15:05:34;3.23;;;2.10;;
10116;SDS011;5098;48.792;9.012;2022-11-15T15:08:00;2.63;;;2.07;;
10116;SDS011;5098;48.792;9.012;2022-11-15T15:10:45;2.67;;;2.20;;
10116;SDS011;5098;48.792;9.012;2022-11-15T15:15:40;3.00;;;2.10;;
10116;SDS011;5098;48.792;9.012;2022-11-15T15:18:06;2.80;;;1.83;;
10116;SDS011;5098;48.792;9.012;2022-11-15T15:20:34;4.60;;;3.50;;
10116;SDS011;5098;48.792;9.012;2022-11-15T15:23:00;5.03;;;2.20;;
10116;SDS011;5098;48.792;9.012;2022-11-15T15:25:33;2.90;;;2.47;;
10116;SDS011;5098;48.792;9.012;2022-11-15T15:28:00;3.07;;;2.37;;
10116;SDS011;5098;48.792;9.012;2022-11-15T15:30:27;3.93;;;2.83;;
10116;SDS011;5098;48.792;9.012;2022-11-15T15:32:54;6.73;;;2.90;;
10116;SDS011;5098;48.792;9.012;2022-11-15T15:35:21;5.13;;;2.90;;
10116;SDS011;5098;48.792;9.012;2022-11-15T15:37:48;5.07;;;2.97;;
10116;SDS011;5098;48.792;9.012;2022-11-15T15:40:18;7.80;;;3.33;;
10116;SDS011;5098;48.792;9.012;2022-11-15T15:42:48;6.63;;;3.20;;
10116;SDS011;5098;48.792;9.012;2022-11-15T15:45:15;6.47;;;3.50;;
10116;SDS011;5098;48.792;9.012;2022-11-15T15:47:41;3.87;;;3.03;;
10116;SDS011;5098;48.792;9.012;2022-11-15T15:50:21;4.70;;;3.37;;
10116;SDS011;5098;48.792;9.012;2022-11-15T15:52:48;5.53;;;4.30;;
10116;SDS011;5098;48.792;9.012;2022-11-15T15:55:14;6.30;;;3.23;;
10116;SDS011;5098;48.792;9.012;2022-11-15T15:57:40;7.07;;;4.07;;
10116;SDS011;5098;48.792;9.012;2022-11-15T16:00:06;5.90;;;3.97;;
10116;SDS011;5098;48.792;9.012;2022-11-15T16:02:32;4.30;;;3.37;;
10116;SDS011;5098;48.792;9.012;2022-11-15T16:04:59;6.07;;;3.60;;
10116;SDS011;5098;48.792;9.012;2022-11-15T16:07:25;5.40;;;3.40;;
10116;SDS011;5098;48.792;9.012;2022-11-15T16:09:53;4.40;;;3.60;;
10116;SDS011;5098;48.792;9.012;2022-11-15T16:12:29;5.40;;;3.47;;
10116;SDS011;5098;48.792;9.012;2022-11-15T16:14:55;4.63;;;3.70;;
10116;SDS011;5098;48.792;9.012;2022-11-15T16:17:22;3.87;;;3.10;;
10116;SDS011;5098;48.792;9.012;2022-11-15T16:19:49;8.20;;;3.63;;
10116;SDS011;5098;48.792;9.012;2022-11-15T16:22:15;4.93;;;4.17;;
10116;SDS011;5098;48.792;9.012;2022-11-15T16:24:41;4.90;;;3.27;;
10116;SDS011;5098;48.792;9.012;2022-11-15T16:27:17;4.90;;;3.13;;
10116;SDS011;5098;48.792;9.012;2022-11-15T16:29:44;4.50;;;3.43;;
10116;SDS011;5098;48.792;9.012;2022-11-15T16:32:10;5.30;;;3.07;;
10116;SDS011;5098;48.792;9.012;2022-11-15T16:34:36;4.47;;;3.27;;
10116;SDS011;5098;48.792;9.012;2022-11-15T16:37:03;5.03;;;3.87;;
10116;SDS011;5098;48.792;9.012;2022-11-15T16:39:29;5.70;;;3.23;;
10116;SDS011;5098;48.792;9.012;2022-11-15T16:41:56;5.47;;;3.23;;
10116;SDS011;5098;48.792;9.012;2022-11-15T16:44:23;7.00;;;3.47;;
10116;SDS011;5098;48.792;9.012;2022-11-15T16:46:49;4.10;;;3.60;;
10116;SDS011;5098;48.792;9.012;2022-11-15T16:49:16;5.03;;;3.57;;
10116;SDS011;5098;48.792;9.012;2022-11-15T16:51:44;6.53;;;4.40;;
10116;SDS011;5098;48.792;9.012;2022-11-15T16:54:11;5.93;;;4.37;;
10116;SDS011;5098;48.792;9.012;2022-11-15T16:56:37;4.90;;;4.07;;
10116;SDS011;5098;48.792;9.012;2022-11-15T16:59:04;5.13;;;4.13;;
10116;SDS011;5098;48.792;9.012;2022-11-15T17:01:31;6.13;;;4.50;;
10116;SDS011;5098;48.792;9.012;2022-11-15T17:03:57;5.30;;;4.10;;
10116;SDS011;5098;48.792;9.012;2022-11-15T17:06:24;13.40;;;5.53;;
10116;SDS011;5098;48.792;9.012;2022-11-15T17:08:50;8.40;;;4.67;;
10116;SDS011;5098;48.792;9.012;2022-11-15T17:11:17;8.60;;;5.07;;
10116;SDS011;5098;48.792;9.012;2022-11-15T17:13:44;5.93;;;5.33;;
10116;SDS011;5098;48.792;9.012;2022-11-15T17:16:11;11.07;;;5.50;;
10116;SDS011;5098;48.792;9.012;2022-11-15T17:18:38;8.37;;;5.83;;
10116;SDS011;5098;48.792;9.012;2022-11-15T17:21:09;5.73;;;5.13;;
10116;SDS011;5098;48.792;9.012;2022-11-15T17:23:37;7.33;;;5.93;;